sensor_id;sensor_type;location;lat;lon;timestamp;pressure;altitude;pressure_sealevel;temperature;humidity
23473;BME280;11909;52.516;13.564;2024-03-02T00:01:06;99715.03;;;6.72;100.00
23473;BME280;11909;52.516;13.564;2024-03-02T00:03:34;99714.22;;;6.71;100.00
23473;BME280;11909;52.516;13.564;2024-03-02T00:06:04;99714.50;;;6.70;100.00
23473;BME280;11909;52.516;13.564;2024-03-02T00:08:32;99708.78;;;6.71;100.00
23473;BME280;11909;52.516;13.564;2024-03-02T00:11:01;99713.38;;;6.71;100.00
23473;BME280;11909;52.516;13.564;2024-03-02T00:13:31;99699.75;;;6.71;100.00
23473;BME280;11909;52.516;13.564;2024-03-02T00:16:00;99698.66;;;6.72;100.00
23473;BME280;11909;52.516;13.564;2024-03-02T00:18:32;99698.41;;;6.73;100.00
23473;BME280;11909;52.516;13.564;2024-03-02T00:21:01;99691.84;;;6.74;100.00
23473;BME280;11909;52.516;13.564;2024-03-02T00:23:31;99691.00;;;6.74;100.00
23473;BME280;11909;52.516;13.564;2024-03-02T00:25:59;99688.28;;;6.74;100.00
23473;BME280;11909;52.516;13.564;2024-03-02T00:28:30;99688.03;;;6.76;100.00
23473;BME280;11909;52.516;13.564;2024-03-02T00:31:04;99685.84;;;6.72;100.00
23473;BME280;11909;52.516;13.564;2024-03-02T00:33:34;99683.13;;;6.72;100.00
23473;BME280;11909;52.516;13.564;2024-03-02T00:36:04;99687.50;;;6.73;100.00
23473;BME280;11909;52.516;13.564;2024-03-02T00:38:33;99679.88;;;6.70;100.00
23473;BME280;11909;52.516;13.564;2024-03-02T00:41:05;99683.69;;;6.69;100.00
23473;BME280;11909;52.516;13.564;2024-03-02T00:43:45;99680.66;;;6.71;100.00
23473;BME280;11909;52.516;13.564;2024-03-02T00:46:18;99681.78;;;6.70;100.00
23473;BME280;11909;52.516;13.564;2024-03-02T00:48:54;99679.88;;;6.70;100.00
23473;BME280;11909;52.516;13.564;2024-03-02T00:51:24;99674.94;;;6.72;100.00
23473;BME280;11909;52.516;13.564;2024-03-02T00:53:54;99681.19;;;6.73;100.00
23473;BME280;11909;52.516;13.564;2024-03-02T00:56:23;99684.75;;;6.73;100.00
23473;BME280;11909;52.516;13.564;2024-03-02T00:58:52;99685.03;;;6.72;100.00
23473;BME280;11909;52.516;13.564;2024-03-02T01:01:21;99679.88;;;6.70;100.00
23473;BME280;11909;52.516;13.564;2024-03-02T01:03:50;99687.50;;;6.68;100.00
23473;BME280;11909;52.516;13.564;2024-03-02T01:06:18;99683.97;;;6.68;100.00
23473;BME280;11909;52.516;13.564;2024-03-02T01:08:47;99675.25;;;6.66;100.00
23473;BME280;11909;52.516;13.564;2024-03-02T01:11:18;99678.78;;;6.66;100.00
23473;BME280;11909;52.516;13.564;2024-03-02T01:13:50;99674.16;;;6.67;100.00
23473;BME280;11909;52.516;13.564;2024-03-02T01:16:18;99677.94;;;6.71;100.00
23473;BME280;11909;52.516;13.564;2024-03-02T01:18:48;99682.59;;;6.70;100.00
23473;BME280;11909;52.516;13.564;2024-03-02T01:21:16;99684.50;;;6.70;100.00
23473;BME280;11909;52.516;13.564;2024-03-02T01:23:44;99687.50;;;6.73;100.00
23473;BME280;11909;52.516;13.564;2024-03-02T01:26:12;99674.09;;;6.77;100.00
23473;BME280;11909;52.516;13.564;2024-03-02T01:28:40;99669.47;;;6.78;100.00
23473;BME280;11909;52.516;13.564;2024-03-02T01:31:08;99670.00;;;6.80;100.00
23473;BME280;11909;52.516;13.564;2024-03-02T01:33:35;99665.59;;;6.84;100.00
23473;BME280;11909;52.516;13.564;2024-03-02T01:36:05;99665.56;;;6.89;100.00
23473;BME280;11909;52.516;13.564;2024-03-02T01:38:35;99658.75;;;6.92;100.00
23473;BME280;11909;52.516;13.564;2024-03-02T01:41:03;99644.53;;;6.95;100.00
23473;BME280;11909;52.516;13.564;2024-03-02T01:43:31;99643.16;;;6.97;100.00
23473;BME280;11909;52.516;13.564;2024-03-02T01:45:59;99644.25;;;6.96;100.00
23473;BME280;11909;52.516;13.564;2024-03-02T01:48:27;99637.41;;;6.99;100.00
23473;BME280;11909;52.516;13.564;2024-03-02T01:50:55;99635.78;;;6.98;100.00
23473;BME280;11909;52.516;13.564;2024-03-02T01:53:25;99626.78;;;6.97;100.00
23473;BME280;11909;52.516;13.564;2024-03-02T01:55:53;99625.69;;;6.98;100.00
23473;BME280;11909;52.516;13.564;2024-03-02T01:58:21;99621.03;;;6.99;100.00
23473;BME280;11909;52.516;13.564;2024-03-02T02:00:49;99624.88;;;6.98;100.00
23473;BME280;11909;52.516;13.564;2024-03-02T02:03:17;99621.56;;;7.01;100.00
23473;BME280;11909;52.516;13.564;2024-03-02T02:05:46;99624.03;;;7.02;100.00
23473;BME280;11909;52.516;13.564;2024-03-02T02:08:15;99614.75;;;7.03;100.00
23473;BME280;11909;52.516;13.564;2024-03-02T02:10:44;99613.63;;;7.05;100.00
23473;BME280;11909;52.516;13.564;2024-03-02T02:13:13;99613.38;;;7.06;100.00
23473;BME280;11909;52.516;13.564;2024-03-02T02:15:40;99602.72;;;7.05;100.00
23473;BME280;11909;52.516;13.564;2024-03-02T02:18:09;99603.56;;;7.05;100.00
23473;BME280;11909;52.516;13.564;2024-03-02T02:20:37;99596.69;;;7.08;100.00
23473;BME280;11909;52.516;13.564;2024-03-02T02:23:06;99593.69;;;7.09;100.00
23473;BME280;11909;52.516;13.564;2024-03-02T02:25:36;99596.69;;;7.08;100.00
23473;BME280;11909;52.516;13.564;2024-03-02T02:28:04;99587.72;;;7.07;100.00
23473;BME280;11909;52.516;13.564;2024-03-02T02:30:33;99597.00;;;7.06;100.00
23473;BME280;11909;52.516;13.564;2024-03-02T02:33:01;99593.69;;;7.09;100.00
23473;BME280;11909;52.516;13.564;2024-03-02T02:35:29;99595.03;;;7.12;100.00
23473;BME280;11909;52.516;13.564;2024-03-02T02:37:58;99595.28;;;7.15;100.00
23473;BME280;11909;52.516;13.564;2024-03-02T02:40:27;99592.81;;;7.19;100.00
23473;BME280;11909;52.516;13.564;2024-03-02T02:42:57;99593.84;;;7.23;100.00
23473;BME280;11909;52.516;13.564;2024-03-02T02:45:25;99586.19;;;7.25;100.00
23473;BME280;11909;52.516;13.564;2024-03-02T02:47:54;99589.97;;;7.29;100.00
23473;BME280;11909;52.516;13.564;2024-03-02T02:50:22;99585.88;;;7.32;100.00
23473;BME280;11909;52.516;13.564;2024-03-02T02:52:50;99596.47;;;7.34;100.00
23473;BME280;11909;52.516;13.564;2024-03-02T02:55:18;99587.72;;;7.37;100.00
23473;BME280;11909;52.516;13.564;2024-03-02T02:57:47;99589.59;;;7.41;100.00
23473;BME280;11909;52.516;13.564;2024-03-02T03:00:16;99591.50;;;7.41;100.00
23473;BME280;11909;52.516;13.564;2024-03-02T03:02:48;99587.38;;;7.43;100.00
23473;BME280;11909;52.516;13.564;2024-03-02T03:05:17;99591.47;;;7.46;100.00
23473;BME280;11909;52.516;13.564;2024-03-02T03:07:45;99582.44;;;7.45;100.00
23473;BME280;11909;52.516;13.564;2024-03-02T03:10:17;99580.22;;;7.47;100.00
23473;BME280;11909;52.516;13.564;2024-03-02T03:12:46;99579.13;;;7.49;100.00
23473;BME280;11909;52.516;13.564;2024-03-02T03:15:14;99579.13;;;7.49;100.00
23473;BME280;11909;52.516;13.564;2024-03-02T03:17:43;99576.41;;;7.49;100.00
23473;BME280;11909;52.516;13.564;2024-03-02T03:20:12;99581.84;;;7.49;100.00
23473;BME280;11909;52.516;13.564;2024-03-02T03:22:42;99568.53;;;7.47;100.00
23473;BME280;11909;52.516;13.564;2024-03-02T03:25:11;99569.03;;;7.49;100.00
23473;BME280;11909;52.516;13.564;2024-03-02T03:27:39;99569.03;;;7.49;100.00
23473;BME280;11909;52.516;13.564;2024-03-02T03:30:09;99569.03;;;7.49;100.00
23473;BME280;11909;52.516;13.564;2024-03-02T03:32:38;99569.31;;;7.47;100.00
23473;BME280;11909;52.516;13.564;2024-03-02T03:35:06;99574.78;;;7.47;100.00
23473;BME280;11909;52.516;13.564;2024-03-02T03:37:35;99575.09;;;7.46;100.00
23473;BME280;11909;52.516;13.564;2024-03-02T03:40:04;99577.28;;;7.44;100.00
23473;BME280;11909;52.516;13.564;2024-03-02T03:42:37;99569.91;;;7.44;100.00
23473;BME280;11909;52.516;13.564;2024-03-02T03:45:06;99568.00;;;7.45;100.00
23473;BME280;11909;52.516;13.564;2024-03-02T03:47:35;99571.25;;;7.47;100.00
23473;BME280;11909;52.516;13.564;2024-03-02T03:50:05;99573.16;;;7.46;100.00
23473;BME280;11909;52.516;13.564;2024-03-02T03:52:33;99568.53;;;7.47;100.00
23473;BME280;11909;52.516;13.564;2024-03-02T03:55:02;99572.03;;;7.47;100.00
23473;BME280;11909;52.516;13.564;2024-03-02T03:57:29;99577.75;;;7.51;100.00
23473;BME280;11909;52.516;13.564;2024-03-02T03:59:57;99578.28;;;7.53;100.00
23473;BME280;11909;52.516;13.564;2024-03-02T04:02:26;99578.00;;;7.55;100.00
23473;BME280;11909;52.516;13.564;2024-03-02T04:04:56;99570.31;;;7.57;100.00
23473;BME280;11909;52.516;13.564;2024-03-02T04:07:23;99570.03;;;7.58;100.00
23473;BME280;11909;52.516;13.564;2024-03-02T04:09:52;99568.13;;;7.59;100.00
23473;BME280;11909;52.516;13.564;2024-03-02T04:12:19;99571.09;;;7.63;100.00
23473;BME280;11909;52.516;13.564;2024-03-02T04:14:47;99563.69;;;7.63;100.00
23473;BME280;11909;52.516;13.564;2024-03-02T04:17:14;99559.06;;;7.64;100.00
23473;BME280;11909;52.516;13.564;2024-03-02T04:19:43;99566.44;;;7.63;100.00
23473;BME280;11909;52.516;13.564;2024-03-02T04:22:12;99571.63;;;7.65;100.00
23473;BME280;11909;52.516;13.564;2024-03-02T04:24:50;99560.38;;;7.66;100.00
23473;BME280;11909;52.516;13.564;2024-03-02T04:27:18;99563.13;;;7.66;100.00
23473;BME280;11909;52.516;13.564;2024-03-02T04:29:46;99562.31;;;7.66;100.00
23473;BME280;11909;52.516;13.564;2024-03-02T04:32:14;99565.06;;;7.66;100.00
23473;BME280;11909;52.516;13.564;2024-03-02T04:34:43;99566.94;;;7.65;100.00
23473;BME280;11909;52.516;13.564;2024-03-02T04:37:12;99566.16;;;7.65;100.00
23473;BME280;11909;52.516;13.564;2024-03-02T04:39:40;99568.38;;;7.63;100.00
23473;BME280;11909;52.516;13.564;2024-03-02T04:42:09;99560.19;;;7.63;100.00
23473;BME280;11909;52.516;13.564;2024-03-02T04:44:37;99571.63;;;7.65;100.00
23473;BME280;11909;52.516;13.564;2024-03-02T04:47:05;99581.44;;;7.66;100.00
23473;BME280;11909;52.516;13.564;2024-03-02T04:49:33;99582.22;;;7.66;100.00
23473;BME280;11909;52.516;13.564;2024-03-02T04:52:01;99585.50;;;7.68;100.00
23473;BME280;11909;52.516;13.564;2024-03-02T04:54:31;99583.88;;;7.67;100.00
23473;BME280;11909;52.516;13.564;2024-03-02T04:56:59;99581.97;;;7.68;100.00
23473;BME280;11909;52.516;13.564;2024-03-02T04:59:27;99578.41;;;7.67;100.00
23473;BME280;11909;52.516;13.564;2024-03-02T05:01:55;99586.31;;;7.69;100.00
23473;BME280;11909;52.516;13.564;2024-03-02T05:04:23;99590.16;;;7.68;100.00
23473;BME280;11909;52.516;13.564;2024-03-02T05:06:51;99588.53;;;7.67;100.00
23473;BME280;11909;52.516;13.564;2024-03-02T05:09:21;99585.78;;;7.67;100.00
23473;BME280;11909;52.516;13.564;2024-03-02T05:11:50;99586.91;;;7.66;100.00
23473;BME280;11909;52.516;13.564;2024-03-02T05:14:36;99596.19;;;7.65;100.00
23473;BME280;11909;52.516;13.564;2024-03-02T05:17:04;99595.38;;;7.64;100.00
23473;BME280;11909;52.516;13.564;2024-03-02T05:19:32;99597.56;;;7.62;100.00
23473;BME280;11909;52.516;13.564;2024-03-02T05:22:00;99612.84;;;7.63;100.00
23473;BME280;11909;52.516;13.564;2024-03-02T05:24:28;99616.41;;;7.64;100.00
23473;BME280;11909;52.516;13.564;2024-03-02T05:26:58;99606.81;;;7.66;100.00
23473;BME280;11909;52.516;13.564;2024-03-02T05:29:26;99605.38;;;7.74;100.00
23473;BME280;11909;52.516;13.564;2024-03-02T05:31:54;99609.44;;;7.77;100.00
23473;BME280;11909;52.516;13.564;2024-03-02T05:34:21;99615.44;;;7.79;100.00
23473;BME280;11909;52.516;13.564;2024-03-02T05:36:50;99618.75;;;7.75;100.00
23473;BME280;11909;52.516;13.564;2024-03-02T05:39:17;99617.91;;;7.75;100.00
23473;BME280;11909;52.516;13.564;2024-03-02T05:41:46;99623.91;;;7.77;100.00
23473;BME280;11909;52.516;13.564;2024-03-02T05:44:15;99617.84;;;7.80;100.00
23473;BME280;11909;52.516;13.564;2024-03-02T05:46:42;99618.38;;;7.82;100.00
23473;BME280;11909;52.516;13.564;2024-03-02T05:49:11;99628.25;;;7.78;100.00
23473;BME280;11909;52.516;13.564;2024-03-02T05:51:39;99633.19;;;7.76;100.00
23473;BME280;11909;52.516;13.564;2024-03-02T05:54:06;99635.94;;;7.76;100.00
23473;BME280;11909;52.516;13.564;2024-03-02T05:56:35;99634.03;;;7.77;100.00
23473;BME280;11909;52.516;13.564;2024-03-02T05:59:03;99623.91;;;7.77;100.00
23473;BME280;11909;52.516;13.564;2024-03-02T06:01:41;99626.56;;;7.82;100.00
23473;BME280;11909;52.516;13.564;2024-03-02T06:04:09;99627.75;;;7.76;100.00
23473;BME280;11909;52.516;13.564;2024-03-02T06:06:37;99626.94;;;7.75;100.00
23473;BME280;11909;52.516;13.564;2024-03-02T06:09:06;99637.50;;;7.82;100.00
23473;BME280;11909;52.516;13.564;2024-03-02T06:11:35;99635.06;;;7.81;100.00
23473;BME280;11909;52.516;13.564;2024-03-02T06:14:03;99641.06;;;7.83;100.00
23473;BME280;11909;52.516;13.564;2024-03-02T06:16:31;99642.44;;;7.80;100.00
23473;BME280;11909;52.516;13.564;2024-03-02T06:19:01;99624.72;;;7.78;100.00
23473;BME280;11909;52.516;13.564;2024-03-02T06:21:29;99628.75;;;7.85;100.00
23473;BME280;11909;52.516;13.564;2024-03-02T06:23:57;99632.63;;;7.79;100.00
23473;BME280;11909;52.516;13.564;2024-03-02T06:26:25;99634.84;;;7.77;100.00
23473;BME280;11909;52.516;13.564;2024-03-02T06:28:53;99633.72;;;7.78;100.00
23473;BME280;11909;52.516;13.564;2024-03-02T06:31:21;99635.13;;;7.75;100.00
23473;BME280;11909;52.516;13.564;2024-03-02T06:33:49;99637.03;;;7.75;100.00
23473;BME280;11909;52.516;13.564;2024-03-02T06:36:18;99638.97;;;7.74;100.00
23473;BME280;11909;52.516;13.564;2024-03-02T06:38:46;99647.16;;;7.74;100.00
23473;BME280;11909;52.516;13.564;2024-03-02T06:41:14;99644.44;;;7.74;100.00
23473;BME280;11909;52.516;13.564;2024-03-02T06:43:41;99641.69;;;7.74;100.00
23473;BME280;11909;52.516;13.564;2024-03-02T06:46:09;99640.28;;;7.77;100.00
23473;BME280;11909;52.516;13.564;2024-03-02T06:48:41;99641.91;;;7.78;100.00
23473;BME280;11909;52.516;13.564;2024-03-02T06:51:09;99648.22;;;7.79;100.00
23473;BME280;11909;52.516;13.564;2024-03-02T06:53:39;99643.84;;;7.78;100.00
23473;BME280;11909;52.516;13.564;2024-03-02T06:56:07;99644.97;;;7.77;100.00
23473;BME280;11909;52.516;13.564;2024-03-02T06:58:35;99646.84;;;7.76;100.00
23473;BME280;11909;52.516;13.564;2024-03-02T07:01:03;99643.03;;;7.77;100.00
23473;BME280;11909;52.516;13.564;2024-03-02T07:03:31;99656.69;;;7.77;100.00
23473;BME280;11909;52.516;13.564;2024-03-02T07:06:00;99661.28;;;7.82;100.00
23473;BME280;11909;52.516;13.564;2024-03-02T07:08:30;99657.19;;;7.79;100.00
23473;BME280;11909;52.516;13.564;2024-03-02T07:10:59;99659.41;;;7.77;100.00
23473;BME280;11909;52.516;13.564;2024-03-02T07:13:27;99646.81;;;7.81;100.00
23473;BME280;11909;52.516;13.564;2024-03-02T07:15:55;99652.00;;;7.83;100.00
23473;BME280;11909;52.516;13.564;2024-03-02T07:18:49;99664.88;;;7.77;100.00
23473;BME280;11909;52.516;13.564;2024-03-02T07:21:19;99675.28;;;7.75;100.00
23473;BME280;11909;52.516;13.564;2024-03-02T07:23:47;99669.53;;;7.77;100.00
23473;BME280;11909;52.516;13.564;2024-03-02T07:26:16;99672.28;;;7.77;100.00
23473;BME280;11909;52.516;13.564;2024-03-02T07:28:49;99683.72;;;7.79;100.00
23473;BME280;11909;52.516;13.564;2024-03-02T07:31:18;99689.97;;;7.79;100.00
23473;BME280;11909;52.516;13.564;2024-03-02T07:33:45;99692.72;;;7.79;100.00
23473;BME280;11909;52.516;13.564;2024-03-02T07:36:14;99697.38;;;7.79;100.00
23473;BME280;11909;52.516;13.564;2024-03-02T07:38:42;99697.38;;;7.79;100.00
23473;BME280;11909;52.516;13.564;2024-03-02T07:41:11;99701.22;;;7.78;100.00
23473;BME280;11909;52.516;13.564;2024-03-02T07:43:41;99702.59;;;7.75;100.00
23473;BME280;11909;52.516;13.564;2024-03-02T07:46:09;99716.78;;;7.77;100.00
23473;BME280;11909;52.516;13.564;2024-03-02T07:48:37;99719.69;;;7.86;100.00
23473;BME280;11909;52.516;13.564;2024-03-02T07:51:05;99731.19;;;7.83;100.00
23473;BME280;11909;52.516;13.564;2024-03-02T07:53:33;99730.34;;;7.87;100.00
23473;BME280;11909;52.516;13.564;2024-03-02T07:56:01;99738.56;;;7.82;100.00
23473;BME280;11909;52.516;13.564;2024-03-02T07:58:29;99745.97;;;7.82;100.00
23473;BME280;11909;52.516;13.564;2024-03-02T08:01:02;99740.19;;;7.83;100.00
23473;BME280;11909;52.516;13.564;2024-03-02T08:03:30;99740.50;;;7.82;100.00
23473;BME280;11909;52.516;13.564;2024-03-02T08:05:58;99736.38;;;7.84;100.00
23473;BME280;11909;52.516;13.564;2024-03-02T08:08:27;99742.38;;;7.86;100.00
23473;BME280;11909;52.516;13.564;2024-03-02T08:10:55;99738.50;;;7.93;100.00
23473;BME280;11909;52.516;13.564;2024-03-02T08:13:26;99742.84;;;7.94;100.00
23473;BME280;11909;52.516;13.564;2024-03-02T08:15:54;99749.13;;;7.94;100.00
23473;BME280;11909;52.516;13.564;2024-03-02T08:18:23;99752.69;;;7.95;100.00
23473;BME280;11909;52.516;13.564;2024-03-02T08:20:52;99757.03;;;7.96;100.00
23473;BME280;11909;52.516;13.564;2024-03-02T08:23:21;99756.47;;;7.99;100.00
23473;BME280;11909;52.516;13.564;2024-03-02T08:25:49;99768.75;;;8.01;100.00
23473;BME280;11909;52.516;13.564;2024-03-02T08:28:17;99780.16;;;8.09;100.00
23473;BME280;11909;52.516;13.564;2024-03-02T08:30:46;99797.13;;;8.06;100.00
23473;BME280;11909;52.516;13.564;2024-03-02T08:33:14;99810.84;;;7.95;100.00
23473;BME280;11909;52.516;13.564;2024-03-02T08:35:43;99801.28;;;7.98;100.00
23473;BME280;11909;52.516;13.564;2024-03-02T08:38:13;99810.00;;;8.00;100.00
23473;BME280;11909;52.516;13.564;2024-03-02T08:40:41;99807.31;;;7.95;100.00
23473;BME280;11909;52.516;13.564;2024-03-02T08:43:09;99809.97;;;8.05;100.00
23473;BME280;11909;52.516;13.564;2024-03-02T08:45:37;99824.16;;;8.07;100.00
23473;BME280;11909;52.516;13.564;2024-03-02T08:48:07;99837.47;;;8.14;100.00
23473;BME280;11909;52.516;13.564;2024-03-02T08:50:36;99841.94;;;8.04;100.00
23473;BME280;11909;52.516;13.564;2024-03-02T08:53:05;99842.22;;;8.03;100.00
23473;BME280;11909;52.516;13.564;2024-03-02T08:55:33;99844.38;;;8.06;100.00
23473;BME280;11909;52.516;13.564;2024-03-02T08:58:02;99859.06;;;8.15;100.00
23473;BME280;11909;52.516;13.564;2024-03-02T09:00:30;99865.97;;;8.08;100.00
23473;BME280;11909;52.516;13.564;2024-03-02T09:02:58;99872.78;;;8.10;100.00
23473;BME280;11909;52.516;13.564;2024-03-02T09:05:26;99875.47;;;8.15;100.00
23473;BME280;11909;52.516;13.564;2024-03-02T09:07:54;99874.38;;;8.16;100.00
23473;BME280;11909;52.516;13.564;2024-03-02T09:10:23;99883.56;;;8.26;100.00
23473;BME280;11909;52.516;13.564;2024-03-02T09:12:54;99899.97;;;8.26;100.00
23473;BME280;11909;52.516;13.564;2024-03-02T09:15:22;99908.22;;;8.21;100.00
23473;BME280;11909;52.516;13.564;2024-03-02T09:17:50;99890.72;;;8.22;100.00
23473;BME280;11909;52.516;13.564;2024-03-02T09:20:18;99890.44;;;8.23;100.00
23473;BME280;11909;52.516;13.564;2024-03-02T09:22:46;99890.09;;;8.30;100.00
23473;BME280;11909;52.516;13.564;2024-03-02T09:25:15;99890.66;;;8.32;100.00
23473;BME280;11909;52.516;13.564;2024-03-02T09:27:44;99896.28;;;8.41;100.00
23473;BME280;11909;52.516;13.564;2024-03-02T09:30:13;99912.63;;;8.56;100.00
23473;BME280;11909;52.516;13.564;2024-03-02T09:32:41;99922.38;;;8.63;100.00
23473;BME280;11909;52.516;13.564;2024-03-02T09:35:10;99942.94;;;8.60;100.00
23473;BME280;11909;52.516;13.564;2024-03-02T09:37:38;99939.44;;;8.54;100.00
23473;BME280;11909;52.516;13.564;2024-03-02T09:40:07;99936.16;;;8.52;100.00
23473;BME280;11909;52.516;13.564;2024-03-02T09:42:36;99931.22;;;8.54;100.00
23473;BME280;11909;52.516;13.564;2024-03-02T09:45:07;99944.28;;;8.63;100.00
23473;BME280;11909;52.516;13.564;2024-03-02T09:47:34;99948.94;;;8.62;100.00
23473;BME280;11909;52.516;13.564;2024-03-02T09:50:04;99954.28;;;8.78;100.00
23473;BME280;11909;52.516;13.564;2024-03-02T09:52:33;99960.50;;;8.83;100.00
23473;BME280;11909;52.516;13.564;2024-03-02T09:55:01;99973.81;;;8.95;100.00
23473;BME280;11909;52.516;13.564;2024-03-02T09:57:32;99994.00;;;8.99;100.00
23473;BME280;11909;52.516;13.564;2024-03-02T10:00:00;100002.72;;;9.07;100.00
23473;BME280;11909;52.516;13.564;2024-03-02T10:02:29;100015.63;;;9.01;100.00
23473;BME280;11909;52.516;13.564;2024-03-02T10:04:57;100011.47;;;9.09;100.00
23473;BME280;11909;52.516;13.564;2024-03-02T10:07:26;100007.16;;;9.27;100.00
23473;BME280;11909;52.516;13.564;2024-03-02T10:09:54;100000.28;;;9.54;100.00
23473;BME280;11909;52.516;13.564;2024-03-02T10:12:22;100053.88;;;9.65;100.00
23473;BME280;11909;52.516;13.564;2024-03-02T10:15:02;100076.56;;;9.71;100.00
23473;BME280;11909;52.516;13.564;2024-03-02T10:17:32;100079.34;;;9.66;100.00
23473;BME280;11909;52.516;13.564;2024-03-02T10:20:21;100080.16;;;9.66;100.00
23473;BME280;11909;52.516;13.564;2024-03-02T10:22:50;100081.91;;;9.81;100.00
23473;BME280;11909;52.516;13.564;2024-03-02T10:25:30;100082.03;;;9.71;100.00
23473;BME280;11909;52.516;13.564;2024-03-02T10:28:02;100086.94;;;9.74;100.00
23473;BME280;11909;52.516;13.564;2024-03-02T10:30:32;100087.22;;;9.72;100.00
23473;BME280;11909;52.516;13.564;2024-03-02T10:33:03;100085.31;;;9.73;100.00
23473;BME280;11909;52.516;13.564;2024-03-02T10:35:32;100086.41;;;9.72;100.00
23473;BME280;11909;52.516;13.564;2024-03-02T10:38:04;100091.13;;;9.66;100.00
23473;BME280;11909;52.516;13.564;2024-03-02T10:40:32;100087.56;;;9.66;100.00
23473;BME280;11909;52.516;13.564;2024-03-02T10:43:01;100078.91;;;9.83;100.00
23473;BME280;11909;52.516;13.564;2024-03-02T10:45:31;100079.75;;;9.78;100.00
23473;BME280;11909;52.516;13.564;2024-03-02T10:48:00;100085.00;;;9.74;100.00
23473;BME280;11909;52.516;13.564;2024-03-02T10:50:31;100078.94;;;9.78;100.00
23473;BME280;11909;52.516;13.564;2024-03-02T10:52:59;100081.56;;;9.88;100.00
23473;BME280;11909;52.516;13.564;2024-03-02T10:55:27;100077.41;;;9.90;100.00
23473;BME280;11909;52.516;13.564;2024-03-02T10:58:00;100073.72;;;10.00;100.00
23473;BME280;11909;52.516;13.564;2024-03-02T11:00:33;100062.47;;;10.02;100.00
23473;BME280;11909;52.516;13.564;2024-03-02T11:03:05;100064.63;;;10.05;100.00
23473;BME280;11909;52.516;13.564;2024-03-02T11:05:39;100054.94;;;10.13;100.00
23473;BME280;11909;52.516;13.564;2024-03-02T11:08:12;100059.56;;;10.17;100.00
23473;BME280;11909;52.516;13.564;2024-03-02T11:10:45;100066.84;;;10.27;100.00
23473;BME280;11909;52.516;13.564;2024-03-02T11:13:21;100062.38;;;10.31;100.00
23473;BME280;11909;52.516;13.564;2024-03-02T11:15:53;100071.66;;;10.36;100.00
23473;BME280;11909;52.516;13.564;2024-03-02T11:18:24;100081.75;;;10.40;100.00
23473;BME280;11909;52.516;13.564;2024-03-02T11:20:54;100080.06;;;10.44;100.00
23473;BME280;11909;52.516;13.564;2024-03-02T11:23:31;100089.31;;;10.49;100.00
23473;BME280;11909;52.516;13.564;2024-03-02T11:26:17;100092.50;;;10.56;100.00
23473;BME280;11909;52.516;13.564;2024-03-02T11:28:45;100083.16;;;10.57;100.00
23473;BME280;11909;52.516;13.564;2024-03-02T11:31:14;100098.75;;;10.61;100.00
23473;BME280;11909;52.516;13.564;2024-03-02T11:33:41;100110.53;;;10.62;100.00
23473;BME280;11909;52.516;13.564;2024-03-02T11:36:11;100103.28;;;10.71;100.00
23473;BME280;11909;52.516;13.564;2024-03-02T11:38:39;100112.03;;;10.73;100.00
23473;BME280;11909;52.516;13.564;2024-03-02T11:41:11;100123.50;;;10.75;100.00
23473;BME280;11909;52.516;13.564;2024-03-02T11:43:41;100119.66;;;10.76;100.00
23473;BME280;11909;52.516;13.564;2024-03-02T11:46:11;100118.78;;;10.81;100.00
23473;BME280;11909;52.516;13.564;2024-03-02T11:48:39;100120.69;;;10.81;100.00
23473;BME280;11909;52.516;13.564;2024-03-02T11:51:08;100123.63;;;11.03;100.00
23473;BME280;11909;52.516;13.564;2024-03-02T11:53:38;100119.25;;;11.02;100.00
23473;BME280;11909;52.516;13.564;2024-03-02T11:56:06;100122.59;;;10.99;100.00
23473;BME280;11909;52.516;13.564;2024-03-02T11:58:37;100128.84;;;11.05;100.00
23473;BME280;11909;52.516;13.564;2024-03-02T12:01:05;100126.00;;;11.10;100.00
23473;BME280;11909;52.516;13.564;2024-03-02T12:03:34;100126.38;;;11.03;100.00
23473;BME280;11909;52.516;13.564;2024-03-02T12:06:02;100127.72;;;11.06;100.00
23473;BME280;11909;52.516;13.564;2024-03-02T12:08:30;100115.34;;;11.09;100.00
23473;BME280;11909;52.516;13.564;2024-03-02T12:11:01;100126.75;;;11.16;100.00
23473;BME280;11909;52.516;13.564;2024-03-02T12:13:30;100119.25;;;11.22;100.00
23473;BME280;11909;52.516;13.564;2024-03-02T12:16:00;100123.03;;;11.26;100.00
23473;BME280;11909;52.516;13.564;2024-03-02T12:18:28;100119.25;;;11.22;100.00
23473;BME280;11909;52.516;13.564;2024-03-02T12:20:56;100120.78;;;11.28;100.00
23473;BME280;11909;52.516;13.564;2024-03-02T12:23:25;100126.50;;;11.31;100.00
23473;BME280;11909;52.516;13.564;2024-03-02T12:25:53;100113.47;;;11.37;100.00
23473;BME280;11909;52.516;13.564;2024-03-02T12:28:23;100115.31;;;11.42;100.00
23473;BME280;11909;52.516;13.564;2024-03-02T12:30:51;100113.00;;;11.49;100.00
23473;BME280;11909;52.516;13.564;2024-03-02T12:33:19;100113.50;;;11.51;100.00
23473;BME280;11909;52.516;13.564;2024-03-02T12:35:49;100114.22;;;11.57;100.00
23473;BME280;11909;52.516;13.564;2024-03-02T12:38:17;100129.50;;;11.63;100.00
23473;BME280;11909;52.516;13.564;2024-03-02T12:40:47;100126.25;;;11.75;100.00
23473;BME280;11909;52.516;13.564;2024-03-02T12:43:15;100132.69;;;11.70;100.00
23473;BME280;11909;52.516;13.564;2024-03-02T12:45:45;100124.13;;;11.72;100.00
23473;BME280;11909;52.516;13.564;2024-03-02T12:48:13;100123.44;;;11.80;100.00
23473;BME280;11909;52.516;13.564;2024-03-02T12:50:41;100131.06;;;11.83;100.00
23473;BME280;11909;52.516;13.564;2024-03-02T12:53:14;100121.59;;;11.89;100.00
23473;BME280;11909;52.516;13.564;2024-03-02T12:55:44;100129.34;;;11.87;100.00